createdAt,value
2023-02-14T00:02:02.164Z,5.73
2023-02-14T00:04:48.308Z,5.50
2023-02-14T00:07:35.186Z,5.43
2023-02-14T00:10:20.758Z,5.03
2023-02-14T00:13:05.953Z,4.83
2023-02-14T00:15:51.240Z,5.93
2023-02-14T00:18:55.168Z,4.73
2023-02-14T00:21:40.368Z,6.03
2023-02-14T00:24:26.983Z,5.87
2023-02-14T00:27:12.593Z,4.60
2023-02-14T00:30:03.024Z,5.10
2023-02-14T00:32:48.619Z,4.37
2023-02-14T00:35:38.045Z,6.70
2023-02-14T00:38:23.300Z,7.73
2023-02-14T00:41:08.605Z,5.73
2023-02-14T00:43:54.272Z,7.47
2023-02-14T00:46:40.788Z,5.23
2023-02-14T00:49:26.123Z,5.87
2023-02-14T00:52:11.468Z,6.40
2023-02-14T00:54:56.891Z,6.53
2023-02-14T00:57:43.222Z,7.83
2023-02-14T01:00:28.388Z,4.97
2023-02-14T01:03:14.205Z,5.80
2023-02-14T01:05:59.408Z,5.47
2023-02-14T01:08:44.895Z,5.33
2023-02-14T01:11:30.524Z,4.10
2023-02-14T01:14:15.665Z,7.27
2023-02-14T01:17:01.451Z,5.10
2023-02-14T01:19:46.680Z,4.70
2023-02-14T01:22:36.521Z,5.20
2023-02-14T01:25:21.852Z,5.67
2023-02-14T01:28:07.137Z,5.77
2023-02-14T01:30:52.419Z,5.23
2023-02-14T01:33:39.361Z,6.90
2023-02-14T01:36:31.355Z,5.53
2023-02-14T01:39:18.543Z,5.33
2023-02-14T01:42:04.126Z,5.40
2023-02-14T01:45:20.127Z,5.17
2023-02-14T01:48:06.276Z,6.30
2023-02-14T01:50:54.807Z,4.77
2023-02-14T01:53:40.298Z,4.70
2023-02-14T01:56:31.833Z,5.60
2023-02-14T01:59:20.779Z,3.83
2023-02-14T02:02:07.318Z,4.57
2023-02-14T02:04:56.199Z,4.43
2023-02-14T02:07:43.912Z,4.33
2023-02-14T02:10:29.561Z,5.63
2023-02-14T02:13:18.749Z,4.33
2023-02-14T02:16:18.013Z,3.97
2023-02-14T02:19:22.166Z,5.30
2023-02-14T02:22:37.539Z,7.47
2023-02-14T02:25:41.080Z,4.07
2023-02-14T02:29:00.690Z,4.30
2023-02-14T02:32:12.811Z,3.73
2023-02-14T02:35:27.277Z,4.80
2023-02-14T02:38:52.529Z,4.13
2023-02-14T02:42:15.958Z,4.00
2023-02-14T02:45:27.388Z,4.50
2023-02-14T02:48:20.287Z,4.77
2023-02-14T02:51:28.788Z,5.15
2023-02-14T02:54:22.466Z,4.87
2023-02-14T02:57:22.309Z,5.27
2023-02-14T03:00:13.582Z,4.73
2023-02-14T03:03:18.478Z,4.67
2023-02-14T03:06:04.526Z,4.63
2023-02-14T03:08:49.709Z,4.17
2023-02-14T03:11:38.280Z,4.97
2023-02-14T03:14:35.451Z,4.87
2023-02-14T03:17:35.060Z,4.60
2023-02-14T03:20:35.385Z,5.47
2023-02-14T03:23:29.379Z,4.23
2023-02-14T03:26:19.879Z,4.40
2023-02-14T03:29:31.258Z,6.03
2023-02-14T03:32:29.662Z,3.10
2023-02-14T03:35:30.598Z,3.53
2023-02-14T03:38:27.168Z,4.23
2023-02-14T03:41:18.013Z,6.40
2023-02-14T03:44:07.507Z,6.47
2023-02-14T03:46:58.662Z,3.97
2023-02-14T03:49:48.954Z,4.83
2023-02-14T03:52:35.901Z,7.53
2023-02-14T03:55:33.717Z,5.30
2023-02-14T03:58:31.712Z,6.00
2023-02-14T04:01:39.629Z,4.63
2023-02-14T04:04:28.860Z,5.10
2023-02-14T04:07:19.759Z,5.07
2023-02-14T04:10:07.127Z,6.20
2023-02-14T04:12:52.961Z,4.27
2023-02-14T04:15:38.664Z,5.57
2023-02-14T04:18:42.343Z,6.20
2023-02-14T04:24:12.966Z,6.17
2023-02-14T04:27:10.579Z,6.23
2023-02-14T04:29:56.737Z,6.40
2023-02-14T04:32:42.160Z,5.40
2023-02-14T04:35:27.563Z,6.67
2023-02-14T04:38:12.681Z,5.30
2023-02-14T04:40:58.163Z,6.13
2023-02-14T04:43:43.757Z,4.73
2023-02-14T04:46:29.000Z,5.37
2023-02-14T04:49:14.604Z,5.20
2023-02-14T04:52:00.268Z,6.43
2023-02-14T04:54:45.527Z,6.73
2023-02-14T04:57:31.591Z,6.10
2023-02-14T05:00:17.606Z,5.33
2023-02-14T05:03:02.674Z,9.13
2023-02-14T05:05:47.822Z,5.33
2023-02-14T05:08:32.963Z,6.03
2023-02-14T05:11:18.462Z,6.17
2023-02-14T05:14:03.707Z,6.30
2023-02-14T05:16:48.946Z,5.50
2023-02-14T05:19:34.406Z,4.50
2023-02-14T05:22:19.779Z,4.17
2023-02-14T05:25:05.495Z,4.53
2023-02-14T05:27:51.025Z,6.07
2023-02-14T05:30:38.179Z,4.30
2023-02-14T05:33:23.657Z,3.87
2023-02-14T05:36:10.678Z,4.10
2023-02-14T05:38:55.913Z,5.67
2023-02-14T05:41:41.625Z,4.17
2023-02-14T05:44:26.920Z,4.47
2023-02-14T05:47:13.165Z,4.40
2023-02-14T05:49:58.929Z,5.00
2023-02-14T05:52:44.468Z,3.30
2023-02-14T05:55:30.010Z,2.77
2023-02-14T06:01:23.733Z,4.60
2023-02-14T06:04:09.111Z,4.20
2023-02-14T06:06:54.341Z,5.20
2023-02-14T06:09:39.803Z,3.47
2023-02-14T06:12:25.184Z,6.07
2023-02-14T06:15:11.303Z,3.53
2023-02-14T06:17:57.741Z,3.80
2023-02-14T06:20:43.280Z,3.60
2023-02-14T06:23:28.949Z,3.67
2023-02-14T06:26:14.668Z,5.07
2023-02-14T06:29:00.198Z,3.70
2023-02-14T06:31:46.165Z,3.60
2023-02-14T06:34:31.552Z,3.20
2023-02-14T06:37:16.906Z,4.13
2023-02-14T06:40:02.416Z,3.57
2023-02-14T06:42:48.377Z,3.37
2023-02-14T06:45:33.802Z,4.67
2023-02-14T06:48:18.991Z,4.03
2023-02-14T06:51:04.582Z,3.43
2023-02-14T06:53:49.941Z,3.33
2023-02-14T06:56:35.237Z,4.90
2023-02-14T06:59:20.556Z,3.07
2023-02-14T07:02:06.541Z,3.50
2023-02-14T07:04:51.826Z,3.50
2023-02-14T07:07:37.022Z,3.77
2023-02-14T07:10:22.359Z,3.37
2023-02-14T07:13:07.649Z,3.17
2023-02-14T07:15:52.934Z,3.67
2023-02-14T07:18:38.610Z,5.93
2023-02-14T07:21:25.780Z,3.80
2023-02-14T07:24:11.769Z,3.43
2023-02-14T07:26:56.972Z,3.30
2023-02-14T07:29:42.048Z,3.63
2023-02-14T07:32:27.552Z,4.03
2023-02-14T07:35:15.016Z,3.43
2023-02-14T07:38:01.499Z,2.70
2023-02-14T07:40:47.259Z,3.37
2023-02-14T07:43:34.476Z,3.43
2023-02-14T07:46:19.654Z,3.80
2023-02-14T07:49:05.542Z,3.60
2023-02-14T07:51:50.739Z,4.77
2023-02-14T07:54:36.204Z,4.03
2023-02-14T07:57:21.433Z,4.10
2023-02-14T08:00:08.014Z,3.40
2023-02-14T08:02:57.324Z,8.13
2023-02-14T08:05:43.161Z,5.47
2023-02-14T08:08:30.680Z,3.87
2023-02-14T08:11:36.360Z,3.03
2023-02-14T08:14:22.818Z,3.77
2023-02-14T08:17:10.137Z,3.60
2023-02-14T08:19:56.918Z,3.83
2023-02-14T08:22:42.957Z,4.83
2023-02-14T08:25:28.377Z,3.43
2023-02-14T08:28:14.934Z,4.77
2023-02-14T08:31:02.151Z,3.67
2023-02-14T08:33:47.820Z,4.43
2023-02-14T08:36:34.505Z,3.57
2023-02-14T08:39:20.042Z,4.70
2023-02-14T08:42:06.042Z,5.17
2023-02-14T08:44:51.325Z,3.53
2023-02-14T08:47:38.614Z,3.20
2023-02-14T08:50:24.035Z,3.47
2023-02-14T08:53:11.238Z,4.13
2023-02-14T08:55:56.898Z,3.70
2023-02-14T08:58:42.506Z,3.17
2023-02-14T09:01:29.221Z,3.30
2023-02-14T09:04:14.974Z,3.27
2023-02-14T09:07:00.610Z,3.17
2023-02-14T09:09:45.851Z,5.27
2023-02-14T09:12:31.130Z,5.00
2023-02-14T09:15:16.538Z,3.37
2023-02-14T09:18:01.986Z,3.60
2023-02-14T09:20:47.219Z,3.13
2023-02-14T09:23:32.629Z,3.33
2023-02-14T09:26:18.859Z,3.83
2023-02-14T09:29:04.033Z,3.90
2023-02-14T09:31:52.169Z,3.77
2023-02-14T09:34:37.407Z,3.60
2023-02-14T09:37:41.162Z,4.57
2023-02-14T09:43:30.697Z,3.40
2023-02-14T09:46:18.862Z,2.80
2023-02-14T09:49:04.448Z,3.27
2023-02-14T09:51:53.371Z,3.73
2023-02-14T09:54:42.540Z,3.60
2023-02-14T09:57:27.979Z,3.87
2023-02-14T10:00:23.008Z,5.10
2023-02-14T10:03:46.056Z,7.53
2023-02-14T10:06:40.683Z,3.67
2023-02-14T10:10:13.103Z,5.80
2023-02-14T10:13:31.566Z,4.07
2023-02-14T10:16:26.849Z,5.00
2023-02-14T10:19:19.677Z,4.07
2023-02-14T10:22:13.052Z,4.40
2023-02-14T10:25:22.580Z,3.95
2023-02-14T10:28:11.437Z,4.40
2023-02-14T10:31:08.009Z,4.77
2023-02-14T10:33:58.018Z,4.67
2023-02-14T10:37:01.437Z,4.50
2023-02-14T10:40:02.289Z,6.53
2023-02-14T10:42:58.464Z,3.90
2023-02-14T10:46:07.300Z,4.87
2023-02-14T10:49:32.017Z,4.20
2023-02-14T10:52:42.379Z,3.57
2023-02-14T10:55:47.186Z,3.80
2023-02-14T10:58:36.668Z,4.40
2023-02-14T11:01:22.618Z,4.83
2023-02-14T11:04:11.594Z,4.20
2023-02-14T11:06:57.126Z,5.23
2023-02-14T11:09:42.490Z,5.40
2023-02-14T11:12:40.370Z,5.73
2023-02-14T11:15:29.015Z,5.10
2023-02-14T11:18:23.307Z,7.60
2023-02-14T11:21:10.567Z,4.83
2023-02-14T11:23:55.885Z,5.53
2023-02-14T11:26:46.842Z,4.93
2023-02-14T11:29:53.190Z,5.23
2023-02-14T11:32:40.842Z,5.23
2023-02-14T11:35:34.604Z,4.90
2023-02-14T11:38:40.087Z,5.30
2023-02-14T11:41:26.137Z,4.37
2023-02-14T11:44:22.812Z,5.30
2023-02-14T11:47:27.402Z,5.70
2023-02-14T11:50:24.824Z,5.33
2023-02-14T11:53:12.601Z,6.23
2023-02-14T11:56:00.678Z,4.80
2023-02-14T11:59:05.907Z,5.10
2023-02-14T12:01:52.615Z,5.97
2023-02-14T12:04:46.548Z,5.73
2023-02-14T12:07:36.165Z,5.20
2023-02-14T12:10:27.591Z,4.93
2023-02-14T12:13:13.131Z,6.47
2023-02-14T12:15:59.581Z,6.47
2023-02-14T12:19:00.532Z,5.53
2023-02-14T12:22:06.898Z,5.73
2023-02-14T12:25:16.902Z,5.67
2023-02-14T12:28:13.476Z,5.23
2023-02-14T12:30:59.542Z,6.40
2023-02-14T12:33:47.135Z,6.03
2023-02-14T12:36:57.565Z,5.73
2023-02-14T12:40:06.314Z,8.67
2023-02-14T12:43:09.228Z,6.30
2023-02-14T12:46:16.290Z,5.72
2023-02-14T12:49:23.347Z,6.33
2023-02-14T12:52:18.275Z,4.93
2023-02-14T12:55:29.601Z,5.60
2023-02-14T12:59:01.522Z,5.57
2023-02-14T13:01:59.063Z,4.50
2023-02-14T13:05:13.120Z,7.40
2023-02-14T13:08:20.049Z,5.67
2023-02-14T13:11:36.393Z,5.77
2023-02-14T13:14:51.246Z,4.90
2023-02-14T13:17:59.550Z,5.17
2023-02-14T13:20:58.498Z,4.80
2023-02-14T13:23:48.581Z,6.20
2023-02-14T13:26:39.668Z,4.40
2023-02-14T13:29:29.623Z,5.63
2023-02-14T13:32:20.193Z,4.87
2023-02-14T13:35:07.815Z,5.17
2023-02-14T13:37:58.833Z,5.63
2023-02-14T13:40:45.527Z,5.73
2023-02-14T13:43:46.300Z,4.97
2023-02-14T13:46:32.029Z,4.87
2023-02-14T13:49:36.818Z,5.80
2023-02-14T13:52:42.963Z,5.43
2023-02-14T13:55:34.874Z,5.20
2023-02-14T13:58:24.201Z,5.47
2023-02-14T14:01:31.489Z,5.23
2023-02-14T14:04:28.995Z,5.67
2023-02-14T14:07:25.706Z,5.40
2023-02-14T14:10:12.060Z,9.00
2023-02-14T14:12:58.006Z,6.60
2023-02-14T14:16:21.857Z,6.47
2023-02-14T14:19:27.161Z,5.72
2023-02-14T14:22:15.032Z,6.37
2023-02-14T14:25:07.659Z,5.90
2023-02-14T14:27:53.850Z,6.53
2023-02-14T14:30:44.744Z,7.33
2023-02-14T14:33:34.875Z,5.60
2023-02-14T14:36:24.364Z,5.80
2023-02-14T14:39:10.528Z,7.43
2023-02-14T14:42:06.675Z,6.20
2023-02-14T14:45:02.971Z,9.00
2023-02-14T14:47:52.874Z,6.17
2023-02-14T14:50:45.307Z,7.37
2023-02-14T14:53:50.559Z,6.80
2023-02-14T14:56:44.722Z,7.70
2023-02-14T14:59:40.355Z,6.53
2023-02-14T15:02:27.704Z,7.03
2023-02-14T15:05:43.788Z,7.23
2023-02-14T15:08:33.482Z,6.03
2023-02-14T15:11:47.722Z,8.80
2023-02-14T15:14:37.213Z,6.63
2023-02-14T15:17:26.872Z,6.70
2023-02-14T15:20:23.587Z,6.97
2023-02-14T15:23:25.956Z,5.80
2023-02-14T15:26:18.925Z,9.03
2023-02-14T15:29:07.801Z,5.55
2023-02-14T15:31:54.569Z,4.53
2023-02-14T15:34:39.716Z,5.53
2023-02-14T15:37:25.911Z,6.20
2023-02-14T15:40:38.860Z,7.27
2023-02-14T15:43:32.542Z,8.23
2023-02-14T15:46:24.821Z,5.67
2023-02-14T15:49:15.617Z,7.00
2023-02-14T15:52:03.219Z,4.33
2023-02-14T15:54:48.637Z,8.20
2023-02-14T15:57:34.775Z,7.77
2023-02-14T16:00:21.869Z,5.67
2023-02-14T16:03:12.278Z,6.23
2023-02-14T16:05:58.434Z,6.40
2023-02-14T16:08:43.742Z,5.77
2023-02-14T16:11:38.106Z,6.73
2023-02-14T16:14:35.698Z,6.43
2023-02-14T16:17:33.526Z,6.57
2023-02-14T16:20:34.470Z,7.87
2023-02-14T16:23:28.592Z,6.83
2023-02-14T16:26:14.830Z,8.23
2023-02-14T16:29:07.119Z,11.47
2023-02-14T16:32:14.680Z,9.03
2023-02-14T16:35:01.383Z,6.27
2023-02-14T16:37:49.959Z,8.80
2023-02-14T16:40:35.640Z,8.10
2023-02-14T16:43:21.619Z,8.90
2023-02-14T16:46:11.523Z,9.10
2023-02-14T16:48:57.321Z,5.77
2023-02-14T16:51:45.459Z,8.27
2023-02-14T16:54:32.380Z,9.73
2023-02-14T16:57:27.742Z,7.83
2023-02-14T17:00:14.277Z,9.40
2023-02-14T17:03:10.975Z,7.93
2023-02-14T17:05:58.147Z,7.03
2023-02-14T17:08:44.402Z,8.63
2023-02-14T17:11:32.031Z,7.37
2023-02-14T17:14:21.773Z,8.60
2023-02-14T17:17:08.642Z,6.43
2023-02-14T17:19:54.492Z,7.80
2023-02-14T17:22:42.557Z,8.50
2023-02-14T17:25:28.145Z,8.27
2023-02-14T17:28:13.530Z,7.43
2023-02-14T17:31:00.583Z,9.00
2023-02-14T17:33:46.332Z,9.30
2023-02-14T17:36:32.377Z,7.60
2023-02-14T17:39:18.968Z,9.03
2023-02-14T17:42:04.583Z,12.73
2023-02-14T17:44:50.289Z,9.50
2023-02-14T17:47:35.901Z,10.57
2023-02-14T17:50:21.670Z,8.87
2023-02-14T17:53:07.759Z,9.53
2023-02-14T17:55:53.265Z,10.10
2023-02-14T17:58:39.160Z,8.67
2023-02-14T18:01:27.037Z,8.40
2023-02-14T18:04:13.397Z,9.93
2023-02-14T18:06:58.977Z,7.80
2023-02-14T18:09:44.457Z,9.40
2023-02-14T18:12:30.390Z,11.20
2023-02-14T18:15:15.789Z,8.77
2023-02-14T18:18:01.409Z,8.00
2023-02-14T18:20:54.714Z,11.57
2023-02-14T18:23:40.171Z,16.10
2023-02-14T18:26:27.367Z,7.17
2023-02-14T18:29:14.015Z,10.40
2023-02-14T18:31:59.626Z,7.93
2023-02-14T18:34:45.089Z,7.37
2023-02-14T18:37:30.664Z,8.20
2023-02-14T18:40:20.210Z,7.63
2023-02-14T18:43:08.309Z,7.77
2023-02-14T18:45:55.326Z,9.00
2023-02-14T18:48:41.419Z,8.30
2023-02-14T18:51:29.843Z,10.73
2023-02-14T18:54:15.196Z,7.13
2023-02-14T18:57:00.983Z,8.97
2023-02-14T18:59:46.689Z,8.30
2023-02-14T19:02:32.751Z,6.90
2023-02-14T19:05:18.612Z,7.00
2023-02-14T19:08:06.770Z,6.93
2023-02-14T19:10:52.469Z,8.63
2023-02-14T19:13:38.935Z,8.30
2023-02-14T19:16:38.013Z,7.00
2023-02-14T19:19:24.672Z,6.43
2023-02-14T19:22:10.141Z,8.40
2023-02-14T19:24:57.263Z,9.47
2023-02-14T19:27:43.072Z,8.70
2023-02-14T19:30:28.744Z,6.60
2023-02-14T19:33:14.204Z,7.17
2023-02-14T19:36:05.538Z,7.10
2023-02-14T19:38:54.830Z,8.97
2023-02-14T19:41:41.054Z,6.70
2023-02-14T19:44:28.757Z,7.80
2023-02-14T19:47:27.168Z,8.30
2023-02-14T19:50:17.673Z,7.83
2023-02-14T19:53:03.625Z,8.67
2023-02-14T19:55:49.282Z,7.47
2023-02-14T19:58:37.295Z,7.17
2023-02-14T20:01:52.195Z,7.50
2023-02-14T20:04:37.912Z,7.53
2023-02-14T20:07:23.235Z,7.47
2023-02-14T20:10:09.387Z,8.20
2023-02-14T20:12:55.076Z,8.43
2023-02-14T20:15:40.795Z,7.27
2023-02-14T20:18:26.165Z,7.37
2023-02-14T20:21:28.013Z,6.37
2023-02-14T20:24:23.228Z,7.00
2023-02-14T20:27:09.173Z,7.30
2023-02-14T20:29:55.952Z,10.60
2023-02-14T20:32:41.667Z,7.73
2023-02-14T20:35:27.098Z,7.33
2023-02-14T20:38:12.631Z,8.20
2023-02-14T20:40:59.100Z,7.03
2023-02-14T20:43:48.929Z,12.33
2023-02-14T20:46:39.195Z,8.20
2023-02-14T20:49:30.775Z,8.50
2023-02-14T20:52:18.022Z,7.57
2023-02-14T20:55:04.219Z,6.43
2023-02-14T20:57:49.891Z,8.03
2023-02-14T21:00:35.331Z,8.13
2023-02-14T21:03:22.519Z,8.90
2023-02-14T21:06:11.663Z,6.83
2023-02-14T21:08:57.727Z,7.57
2023-02-14T21:11:44.404Z,9.17
2023-02-14T21:14:30.289Z,8.30
2023-02-14T21:17:15.950Z,8.93
2023-02-14T21:20:01.437Z,6.40
2023-02-14T21:22:46.687Z,9.20
2023-02-14T21:25:32.787Z,7.47
2023-02-14T21:28:18.040Z,6.13
2023-02-14T21:31:11.343Z,8.80
2023-02-14T21:36:43.729Z,8.23
2023-02-14T21:39:31.030Z,6.80
2023-02-14T21:42:18.513Z,7.63
2023-02-14T21:45:22.586Z,6.90
2023-02-14T21:48:26.536Z,7.63
2023-02-14T21:51:11.613Z,7.97
2023-02-14T21:53:59.852Z,7.47
2023-02-14T21:56:45.542Z,6.53
2023-02-14T21:59:30.804Z,7.00
2023-02-14T22:02:15.944Z,6.87
2023-02-14T22:05:01.317Z,5.90
2023-02-14T22:07:46.667Z,6.00
2023-02-14T22:10:32.026Z,5.90
2023-02-14T22:13:17.457Z,8.03
2023-02-14T22:16:05.129Z,6.70
2023-02-14T22:18:51.173Z,7.13
2023-02-14T22:21:36.419Z,6.93
2023-02-14T22:24:22.395Z,7.47
2023-02-14T22:27:07.618Z,7.77
2023-02-14T22:29:52.907Z,6.80
2023-02-14T22:32:38.233Z,5.90
2023-02-14T22:35:23.501Z,6.73
2023-02-14T22:38:08.890Z,6.90
2023-02-14T22:40:54.493Z,5.93
2023-02-14T22:43:41.013Z,5.80
2023-02-14T22:46:28.387Z,6.27
2023-02-14T22:49:13.863Z,6.27
2023-02-14T22:51:59.470Z,5.90
2023-02-14T22:54:44.772Z,7.33
2023-02-14T22:57:31.878Z,7.40
2023-02-14T23:00:17.379Z,5.30
2023-02-14T23:03:02.682Z,6.03
2023-02-14T23:05:48.013Z,5.50
2023-02-14T23:08:33.549Z,7.90
2023-02-14T23:11:21.606Z,7.00
2023-02-14T23:14:27.606Z,7.03
2023-02-14T23:17:18.785Z,6.43
2023-02-14T23:20:23.342Z,5.07
2023-02-14T23:23:08.733Z,7.00
2023-02-14T23:25:54.060Z,7.80
2023-02-14T23:28:39.572Z,6.87
2023-02-14T23:31:24.832Z,6.43
2023-02-14T23:34:10.240Z,5.47
2023-02-14T23:36:55.582Z,6.47
2023-02-14T23:39:41.657Z,5.27
2023-02-14T23:42:28.249Z,6.80
2023-02-14T23:45:31.964Z,5.87
2023-02-14T23:51:02.675Z,5.33
2023-02-14T23:53:47.981Z,5.60
2023-02-14T23:56:34.261Z,5.23
2023-02-14T23:59:21.632Z,4.47
